Rechercher aéroport 
image banner adimage banner adimage banner ad
image banner ad

CA26 - Hall Of Justice

Situé à San Francisco, United States

ICAO - CA26, IATA -

Données fournies par Airmate  

Information générale

Coordonnées: N37°46'30" W122°24'15"
Élévation : 118 feet MSL.
Variation magnétique : 16° East
Voir autres Aéroports à California

Données opérationnelles

Special qualification required
Heure actuelle UTC:
Heure actuelle locale:
Météo à : KOAK - Metropolitan Oakland Intl ( 17 km )
METAR: KOAK 251553Z 29005KT 10SM OVC010 16/13 A2999 RMK AO2 SLP154 T01560128
TAF: KOAK 251121Z 2512/2618 31007KT P6SM OVC008 FM251700 VRB05KT P6SM FEW012 FM252100 30015KT P6SM SKC FM260500 30007KT P6SM SCT010 SCT200 FM260600 30008KT P6SM BKN008 FM261700 28008KT P6SM SCT010
Voir NOTAMs / SUP AIP / TFR affectant cet aéroport [VIEW]
Fréquences de communication: [VIEW]

Pistes:

Coordonnées de l'aéroport

Adresse: San Francisco United States

Vue satellite de CA26